sensor_id;sensor_type;location;lat;lon;timestamp;temperature;humidity
15286;DHT22;7744;52.172;10.668;2022-07-29T00:00:53;14.00;99.90
15286;DHT22;7744;52.172;10.668;2022-07-29T00:03:18;14.00;99.90
15286;DHT22;7744;52.172;10.668;2022-07-29T00:05:44;14.00;99.90
15286;DHT22;7744;52.172;10.668;2022-07-29T00:08:09;15.30;99.90
15286;DHT22;7744;52.172;10.668;2022-07-29T00:10:35;14.10;99.90
15286;DHT22;7744;52.172;10.668;2022-07-29T00:13:01;14.10;99.90
15286;DHT22;7744;52.172;10.668;2022-07-29T00:15:27;14.10;99.90
15286;DHT22;7744;52.172;10.668;2022-07-29T00:17:52;14.10;99.90
15286;DHT22;7744;52.172;10.668;2022-07-29T00:20:18;14.20;99.90
15286;DHT22;7744;52.172;10.668;2022-07-29T00:22:44;14.20;99.90
15286;DHT22;7744;52.172;10.668;2022-07-29T00:25:09;14.10;99.90
15286;DHT22;7744;52.172;10.668;2022-07-29T00:27:37;14.20;99.90
15286;DHT22;7744;52.172;10.668;2022-07-29T00:30:04;14.20;99.90
15286;DHT22;7744;52.172;10.668;2022-07-29T00:32:30;14.20;99.90
15286;DHT22;7744;52.172;10.668;2022-07-29T00:34:55;14.30;99.90
15286;DHT22;7744;52.172;10.668;2022-07-29T00:37:39;14.20;99.90
15286;DHT22;7744;52.172;10.668;2022-07-29T00:40:05;14.20;99.90
15286;DHT22;7744;52.172;10.668;2022-07-29T00:42:44;14.30;99.90
15286;DHT22;7744;52.172;10.668;2022-07-29T00:45:10;14.30;99.90
15286;DHT22;7744;52.172;10.668;2022-07-29T00:47:36;14.30;99.90
15286;DHT22;7744;52.172;10.668;2022-07-29T00:50:03;14.30;65.80
15286;DHT22;7744;52.172;10.668;2022-07-29T00:52:29;14.40;13.70
15286;DHT22;7744;52.172;10.668;2022-07-29T00:54:56;14.40;53.90
15286;DHT22;7744;52.172;10.668;2022-07-29T00:57:21;14.50;1.00
15286;DHT22;7744;52.172;10.668;2022-07-29T00:59:47;14.50;1.00
15286;DHT22;7744;52.172;10.668;2022-07-29T01:02:12;14.50;1.00
15286;DHT22;7744;52.172;10.668;2022-07-29T01:04:38;14.50;1.00
15286;DHT22;7744;52.172;10.668;2022-07-29T01:07:04;14.50;1.00
15286;DHT22;7744;52.172;10.668;2022-07-29T01:09:34;14.50;1.00
15286;DHT22;7744;52.172;10.668;2022-07-29T01:12:01;15.70;1.00
15286;DHT22;7744;52.172;10.668;2022-07-29T01:14:28;14.50;1.00
15286;DHT22;7744;52.172;10.668;2022-07-29T01:17:22;14.50;94.10
15286;DHT22;7744;52.172;10.668;2022-07-29T01:20:03;14.60;99.90
15286;DHT22;7744;52.172;10.668;2022-07-29T01:30:46;14.50;1.00
15286;DHT22;7744;52.172;10.668;2022-07-29T01:33:15;14.50;39.80
15286;DHT22;7744;52.172;10.668;2022-07-29T01:36:09;14.50;99.90
15286;DHT22;7744;52.172;10.668;2022-07-29T01:38:38;14.50;99.90
15286;DHT22;7744;52.172;10.668;2022-07-29T01:41:23;14.70;99.90
15286;DHT22;7744;52.172;10.668;2022-07-29T01:44:13;14.60;99.90
15286;DHT22;7744;52.172;10.668;2022-07-29T01:46:46;14.60;99.90
15286;DHT22;7744;52.172;10.668;2022-07-29T01:49:16;14.60;95.20
15286;DHT22;7744;52.172;10.668;2022-07-29T01:51:57;14.60;99.90
15286;DHT22;7744;52.172;10.668;2022-07-29T01:56:58;14.60;1.00
15286;DHT22;7744;52.172;10.668;2022-07-29T01:59:25;14.60;96.90
15286;DHT22;7744;52.172;10.668;2022-07-29T02:01:53;14.60;99.90
15286;DHT22;7744;52.172;10.668;2022-07-29T02:04:20;14.60;99.90
15286;DHT22;7744;52.172;10.668;2022-07-29T02:06:49;15.60;99.90
15286;DHT22;7744;52.172;10.668;2022-07-29T02:09:16;14.60;99.90
15286;DHT22;7744;52.172;10.668;2022-07-29T02:11:49;14.60;99.90
15286;DHT22;7744;52.172;10.668;2022-07-29T02:14:21;14.50;99.90
15286;DHT22;7744;52.172;10.668;2022-07-29T02:16:50;14.50;99.90
15286;DHT22;7744;52.172;10.668;2022-07-29T02:19:18;14.50;99.90
15286;DHT22;7744;52.172;10.668;2022-07-29T02:21:45;14.50;99.90
15286;DHT22;7744;52.172;10.668;2022-07-29T02:24:12;14.40;99.90
15286;DHT22;7744;52.172;10.668;2022-07-29T02:26:40;14.50;99.90
15286;DHT22;7744;52.172;10.668;2022-07-29T02:29:07;14.80;99.90
15286;DHT22;7744;52.172;10.668;2022-07-29T02:31:34;14.40;99.90
15286;DHT22;7744;52.172;10.668;2022-07-29T02:34:06;15.20;99.90
15286;DHT22;7744;52.172;10.668;2022-07-29T02:36:33;14.40;99.90
15286;DHT22;7744;52.172;10.668;2022-07-29T02:39:00;14.40;99.90
15286;DHT22;7744;52.172;10.668;2022-07-29T02:41:40;14.40;99.90
15286;DHT22;7744;52.172;10.668;2022-07-29T02:44:12;14.30;99.90
15286;DHT22;7744;52.172;10.668;2022-07-29T02:46:47;14.30;99.90
15286;DHT22;7744;52.172;10.668;2022-07-29T02:52:04;14.30;99.90
15286;DHT22;7744;52.172;10.668;2022-07-29T02:54:41;14.30;1.00
15286;DHT22;7744;52.172;10.668;2022-07-29T02:57:17;14.30;99.90
15286;DHT22;7744;52.172;10.668;2022-07-29T02:59:45;14.40;99.90
15286;DHT22;7744;52.172;10.668;2022-07-29T03:02:14;13.90;99.90
15286;DHT22;7744;52.172;10.668;2022-07-29T03:04:41;14.40;99.90
15286;DHT22;7744;52.172;10.668;2022-07-29T03:07:08;14.40;99.90
15286;DHT22;7744;52.172;10.668;2022-07-29T03:09:36;14.40;99.90
15286;DHT22;7744;52.172;10.668;2022-07-29T03:12:02;14.30;99.90
15286;DHT22;7744;52.172;10.668;2022-07-29T03:14:30;14.40;99.90
15286;DHT22;7744;52.172;10.668;2022-07-29T03:16:56;14.40;99.90
15286;DHT22;7744;52.172;10.668;2022-07-29T03:19:22;15.40;99.90
15286;DHT22;7744;52.172;10.668;2022-07-29T03:21:48;14.30;99.90
15286;DHT22;7744;52.172;10.668;2022-07-29T03:24:28;14.60;99.90
15286;DHT22;7744;52.172;10.668;2022-07-29T03:26:55;14.40;1.00
15286;DHT22;7744;52.172;10.668;2022-07-29T03:29:21;14.40;1.00
15286;DHT22;7744;52.172;10.668;2022-07-29T03:31:47;14.40;99.90
15286;DHT22;7744;52.172;10.668;2022-07-29T03:34:12;14.40;1.00
15286;DHT22;7744;52.172;10.668;2022-07-29T03:36:38;14.50;99.90
15286;DHT22;7744;52.172;10.668;2022-07-29T03:39:04;14.50;99.90
15286;DHT22;7744;52.172;10.668;2022-07-29T03:41:31;14.50;99.90
15286;DHT22;7744;52.172;10.668;2022-07-29T03:43:58;14.50;99.90
15286;DHT22;7744;52.172;10.668;2022-07-29T03:46:26;14.50;99.90
15286;DHT22;7744;52.172;10.668;2022-07-29T03:48:59;14.50;99.90
15286;DHT22;7744;52.172;10.668;2022-07-29T03:51:26;14.50;99.90
15286;DHT22;7744;52.172;10.668;2022-07-29T03:53:52;14.60;99.90
15286;DHT22;7744;52.172;10.668;2022-07-29T03:56:21;14.60;99.90
15286;DHT22;7744;52.172;10.668;2022-07-29T03:58:48;14.70;51.90
15286;DHT22;7744;52.172;10.668;2022-07-29T04:01:16;14.70;1.00
15286;DHT22;7744;52.172;10.668;2022-07-29T04:03:43;14.70;53.20
15286;DHT22;7744;52.172;10.668;2022-07-29T04:06:11;16.00;99.90
15286;DHT22;7744;52.172;10.668;2022-07-29T04:08:36;14.80;99.90
15286;DHT22;7744;52.172;10.668;2022-07-29T04:11:03;14.80;99.90
15286;DHT22;7744;52.172;10.668;2022-07-29T04:13:29;14.70;99.90
15286;DHT22;7744;52.172;10.668;2022-07-29T04:15:55;14.70;99.90
15286;DHT22;7744;52.172;10.668;2022-07-29T04:18:20;14.80;99.90
15286;DHT22;7744;52.172;10.668;2022-07-29T04:20:46;14.80;99.90
15286;DHT22;7744;52.172;10.668;2022-07-29T04:23:11;15.80;99.90
15286;DHT22;7744;52.172;10.668;2022-07-29T04:25:38;14.80;99.90
15286;DHT22;7744;52.172;10.668;2022-07-29T04:28:04;14.90;99.90
15286;DHT22;7744;52.172;10.668;2022-07-29T04:30:31;15.30;99.90
15286;DHT22;7744;52.172;10.668;2022-07-29T04:32:57;15.60;99.90
15286;DHT22;7744;52.172;10.668;2022-07-29T04:35:23;14.90;99.90
15286;DHT22;7744;52.172;10.668;2022-07-29T04:37:49;15.00;99.90
15286;DHT22;7744;52.172;10.668;2022-07-29T04:40:14;15.10;99.90
15286;DHT22;7744;52.172;10.668;2022-07-29T04:42:40;15.10;99.90
15286;DHT22;7744;52.172;10.668;2022-07-29T04:45:06;15.10;99.90
15286;DHT22;7744;52.172;10.668;2022-07-29T04:47:31;15.20;99.90
15286;DHT22;7744;52.172;10.668;2022-07-29T04:49:57;15.30;99.90
15286;DHT22;7744;52.172;10.668;2022-07-29T04:52:23;15.30;99.90
15286;DHT22;7744;52.172;10.668;2022-07-29T04:54:49;15.40;99.90
15286;DHT22;7744;52.172;10.668;2022-07-29T04:57:14;15.30;99.90
15286;DHT22;7744;52.172;10.668;2022-07-29T04:59:40;15.40;1.00
15286;DHT22;7744;52.172;10.668;2022-07-29T05:02:05;15.50;1.00
15286;DHT22;7744;52.172;10.668;2022-07-29T05:04:31;15.50;99.90
15286;DHT22;7744;52.172;10.668;2022-07-29T05:06:56;16.10;99.90
15286;DHT22;7744;52.172;10.668;2022-07-29T05:09:22;15.60;99.90
15286;DHT22;7744;52.172;10.668;2022-07-29T05:11:47;15.70;72.60
15286;DHT22;7744;52.172;10.668;2022-07-29T05:14:13;15.80;41.70
15286;DHT22;7744;52.172;10.668;2022-07-29T05:16:38;16.00;43.20
15286;DHT22;7744;52.172;10.668;2022-07-29T05:19:05;16.10;1.00
15286;DHT22;7744;52.172;10.668;2022-07-29T05:21:31;16.20;1.00
15286;DHT22;7744;52.172;10.668;2022-07-29T05:23:57;17.50;99.90
15286;DHT22;7744;52.172;10.668;2022-07-29T05:26:22;16.30;99.90
15286;DHT22;7744;52.172;10.668;2022-07-29T05:28:48;16.30;99.90
15286;DHT22;7744;52.172;10.668;2022-07-29T05:31:13;16.80;1.00
15286;DHT22;7744;52.172;10.668;2022-07-29T05:33:40;17.50;1.00
15286;DHT22;7744;52.172;10.668;2022-07-29T05:36:06;17.40;1.00
15286;DHT22;7744;52.172;10.668;2022-07-29T05:38:36;17.30;99.90
15286;DHT22;7744;52.172;10.668;2022-07-29T05:41:01;16.80;99.90
15286;DHT22;7744;52.172;10.668;2022-07-29T05:43:27;16.80;99.90
15286;DHT22;7744;52.172;10.668;2022-07-29T05:45:53;17.00;99.90
15286;DHT22;7744;52.172;10.668;2022-07-29T05:48:19;17.10;1.00
15286;DHT22;7744;52.172;10.668;2022-07-29T05:50:44;17.30;1.00
15286;DHT22;7744;52.172;10.668;2022-07-29T05:53:10;17.40;99.90
15286;DHT22;7744;52.172;10.668;2022-07-29T05:55:35;17.90;99.90
15286;DHT22;7744;52.172;10.668;2022-07-29T05:58:01;17.40;1.00
15286;DHT22;7744;52.172;10.668;2022-07-29T06:00:26;17.40;1.00
15286;DHT22;7744;52.172;10.668;2022-07-29T06:02:52;17.50;1.00
15286;DHT22;7744;52.172;10.668;2022-07-29T06:05:17;17.60;99.90
15286;DHT22;7744;52.172;10.668;2022-07-29T06:07:43;17.30;1.00
15286;DHT22;7744;52.172;10.668;2022-07-29T06:10:09;17.60;1.00
15286;DHT22;7744;52.172;10.668;2022-07-29T06:12:35;17.70;1.00
15286;DHT22;7744;52.172;10.668;2022-07-29T06:15:01;17.60;99.90
15286;DHT22;7744;52.172;10.668;2022-07-29T06:17:27;17.60;1.00
15286;DHT22;7744;52.172;10.668;2022-07-29T06:19:52;18.00;1.00
15286;DHT22;7744;52.172;10.668;2022-07-29T06:22:18;17.40;99.90
15286;DHT22;7744;52.172;10.668;2022-07-29T06:24:43;17.90;1.00
15286;DHT22;7744;52.172;10.668;2022-07-29T06:27:12;17.90;99.90
15286;DHT22;7744;52.172;10.668;2022-07-29T06:29:38;17.60;83.60
15286;DHT22;7744;52.172;10.668;2022-07-29T06:32:04;18.70;99.90
15286;DHT22;7744;52.172;10.668;2022-07-29T06:34:29;18.00;1.00
15286;DHT22;7744;52.172;10.668;2022-07-29T06:36:55;18.50;1.00
15286;DHT22;7744;52.172;10.668;2022-07-29T06:39:21;19.60;99.90
15286;DHT22;7744;52.172;10.668;2022-07-29T06:41:47;20.30;99.90
15286;DHT22;7744;52.172;10.668;2022-07-29T06:44:17;20.00;54.00
15286;DHT22;7744;52.172;10.668;2022-07-29T06:46:43;20.00;1.00
15286;DHT22;7744;52.172;10.668;2022-07-29T06:49:11;20.30;1.00
15286;DHT22;7744;52.172;10.668;2022-07-29T06:51:39;20.40;1.00
15286;DHT22;7744;52.172;10.668;2022-07-29T06:54:05;19.90;1.00
15286;DHT22;7744;52.172;10.668;2022-07-29T06:56:31;19.80;99.90
15286;DHT22;7744;52.172;10.668;2022-07-29T06:58:57;19.70;99.90
15286;DHT22;7744;52.172;10.668;2022-07-29T07:01:23;20.60;99.90
15286;DHT22;7744;52.172;10.668;2022-07-29T07:03:48;20.30;1.00
15286;DHT22;7744;52.172;10.668;2022-07-29T07:06:14;20.40;1.00
15286;DHT22;7744;52.172;10.668;2022-07-29T07:08:39;20.70;1.00
15286;DHT22;7744;52.172;10.668;2022-07-29T07:11:05;21.20;99.90
15286;DHT22;7744;52.172;10.668;2022-07-29T07:13:32;21.90;3.00
15286;DHT22;7744;52.172;10.668;2022-07-29T07:16:00;22.30;1.00
15286;DHT22;7744;52.172;10.668;2022-07-29T07:18:26;23.20;1.00
15286;DHT22;7744;52.172;10.668;2022-07-29T07:20:52;23.50;1.00
15286;DHT22;7744;52.172;10.668;2022-07-29T07:23:17;24.30;1.00
15286;DHT22;7744;52.172;10.668;2022-07-29T07:25:43;23.70;1.00
15286;DHT22;7744;52.172;10.668;2022-07-29T07:28:09;24.20;99.90
15286;DHT22;7744;52.172;10.668;2022-07-29T07:30:35;24.20;99.90
15286;DHT22;7744;52.172;10.668;2022-07-29T07:33:00;22.90;99.90
15286;DHT22;7744;52.172;10.668;2022-07-29T07:35:26;22.40;99.90
15286;DHT22;7744;52.172;10.668;2022-07-29T07:37:53;22.20;1.00
15286;DHT22;7744;52.172;10.668;2022-07-29T07:40:21;21.90;1.00
15286;DHT22;7744;52.172;10.668;2022-07-29T07:42:46;21.90;1.00
15286;DHT22;7744;52.172;10.668;2022-07-29T07:45:13;22.10;1.00
15286;DHT22;7744;52.172;10.668;2022-07-29T07:47:38;21.80;1.00
15286;DHT22;7744;52.172;10.668;2022-07-29T07:50:06;22.10;1.00
15286;DHT22;7744;52.172;10.668;2022-07-29T07:52:32;21.70;1.00
15286;DHT22;7744;52.172;10.668;2022-07-29T07:54:57;22.40;1.00
15286;DHT22;7744;52.172;10.668;2022-07-29T07:57:23;21.50;1.00
15286;DHT22;7744;52.172;10.668;2022-07-29T07:59:48;22.10;1.00
15286;DHT22;7744;52.172;10.668;2022-07-29T08:02:14;22.50;1.00
15286;DHT22;7744;52.172;10.668;2022-07-29T08:04:40;22.90;99.90
15286;DHT22;7744;52.172;10.668;2022-07-29T08:07:06;22.90;99.90
15286;DHT22;7744;52.172;10.668;2022-07-29T08:09:33;23.30;99.90
15286;DHT22;7744;52.172;10.668;2022-07-29T08:12:00;23.20;99.90
15286;DHT22;7744;52.172;10.668;2022-07-29T08:14:30;23.30;99.90
15286;DHT22;7744;52.172;10.668;2022-07-29T08:16:56;23.00;99.90
15286;DHT22;7744;52.172;10.668;2022-07-29T08:19:23;23.10;99.90
15286;DHT22;7744;52.172;10.668;2022-07-29T08:21:48;23.50;99.90
15286;DHT22;7744;52.172;10.668;2022-07-29T08:24:14;23.70;99.90
15286;DHT22;7744;52.172;10.668;2022-07-29T08:26:58;24.00;99.90
15286;DHT22;7744;52.172;10.668;2022-07-29T08:29:24;23.70;99.90
15286;DHT22;7744;52.172;10.668;2022-07-29T08:31:49;23.90;99.90
15286;DHT22;7744;52.172;10.668;2022-07-29T08:34:15;23.90;99.90
15286;DHT22;7744;52.172;10.668;2022-07-29T08:36:40;23.90;99.90
15286;DHT22;7744;52.172;10.668;2022-07-29T08:39:06;23.90;99.90
15286;DHT22;7744;52.172;10.668;2022-07-29T08:41:32;23.90;99.90
15286;DHT22;7744;52.172;10.668;2022-07-29T08:43:57;24.20;99.90
15286;DHT22;7744;52.172;10.668;2022-07-29T08:46:24;24.30;99.90
15286;DHT22;7744;52.172;10.668;2022-07-29T08:48:50;24.00;99.90
15286;DHT22;7744;52.172;10.668;2022-07-29T08:51:18;23.80;99.90
15286;DHT22;7744;52.172;10.668;2022-07-29T08:53:45;23.90;99.90
15286;DHT22;7744;52.172;10.668;2022-07-29T08:56:14;23.90;99.90
15286;DHT22;7744;52.172;10.668;2022-07-29T08:58:42;24.20;99.90
15286;DHT22;7744;52.172;10.668;2022-07-29T09:01:08;24.50;99.90
15286;DHT22;7744;52.172;10.668;2022-07-29T09:03:37;24.60;99.90
15286;DHT22;7744;52.172;10.668;2022-07-29T09:06:04;25.30;99.90
15286;DHT22;7744;52.172;10.668;2022-07-29T09:08:34;24.50;99.90
15286;DHT22;7744;52.172;10.668;2022-07-29T09:11:03;24.50;99.90
15286;DHT22;7744;52.172;10.668;2022-07-29T09:13:28;24.50;99.90
15286;DHT22;7744;52.172;10.668;2022-07-29T09:15:54;24.70;99.90
15286;DHT22;7744;52.172;10.668;2022-07-29T09:21:02;24.70;99.90
15286;DHT22;7744;52.172;10.668;2022-07-29T09:26:30;25.40;99.90
15286;DHT22;7744;52.172;10.668;2022-07-29T09:28:59;25.50;99.90
15286;DHT22;7744;52.172;10.668;2022-07-29T09:31:38;25.50;99.90
15286;DHT22;7744;52.172;10.668;2022-07-29T09:34:04;24.80;99.90
15286;DHT22;7744;52.172;10.668;2022-07-29T09:36:30;24.70;99.90
15286;DHT22;7744;52.172;10.668;2022-07-29T09:39:02;24.90;99.90
15286;DHT22;7744;52.172;10.668;2022-07-29T09:41:29;24.90;99.90
15286;DHT22;7744;52.172;10.668;2022-07-29T09:43:58;25.00;99.90
15286;DHT22;7744;52.172;10.668;2022-07-29T09:46:25;24.90;99.90
15286;DHT22;7744;52.172;10.668;2022-07-29T09:49:11;25.10;99.90
15286;DHT22;7744;52.172;10.668;2022-07-29T09:51:38;24.80;99.90
15286;DHT22;7744;52.172;10.668;2022-07-29T09:56:48;24.90;99.90
15286;DHT22;7744;52.172;10.668;2022-07-29T09:59:14;25.00;99.90
15286;DHT22;7744;52.172;10.668;2022-07-29T10:01:40;25.10;99.90
15286;DHT22;7744;52.172;10.668;2022-07-29T10:04:06;25.00;99.90
15286;DHT22;7744;52.172;10.668;2022-07-29T10:06:31;25.30;99.90
15286;DHT22;7744;52.172;10.668;2022-07-29T10:09:10;25.60;99.90
15286;DHT22;7744;52.172;10.668;2022-07-29T10:11:36;25.40;99.90
15286;DHT22;7744;52.172;10.668;2022-07-29T10:14:03;25.40;99.90
15286;DHT22;7744;52.172;10.668;2022-07-29T10:16:29;25.30;99.90
15286;DHT22;7744;52.172;10.668;2022-07-29T10:18:58;25.10;99.90
15286;DHT22;7744;52.172;10.668;2022-07-29T10:21:25;25.30;99.90
15286;DHT22;7744;52.172;10.668;2022-07-29T10:23:52;25.70;99.90
15286;DHT22;7744;52.172;10.668;2022-07-29T10:26:19;25.60;99.90
15286;DHT22;7744;52.172;10.668;2022-07-29T10:28:45;25.80;99.90
15286;DHT22;7744;52.172;10.668;2022-07-29T10:31:19;26.30;99.90
15286;DHT22;7744;52.172;10.668;2022-07-29T10:34:23;26.20;99.90
15286;DHT22;7744;52.172;10.668;2022-07-29T10:40:17;26.40;99.90
15286;DHT22;7744;52.172;10.668;2022-07-29T10:43:17;26.80;99.90
15286;DHT22;7744;52.172;10.668;2022-07-29T10:45:47;27.10;99.90
15286;DHT22;7744;52.172;10.668;2022-07-29T10:48:13;26.50;99.90
15286;DHT22;7744;52.172;10.668;2022-07-29T10:53:24;26.50;99.90
15286;DHT22;7744;52.172;10.668;2022-07-29T10:55:51;27.00;99.90
15286;DHT22;7744;52.172;10.668;2022-07-29T11:00:45;27.70;99.90
15286;DHT22;7744;52.172;10.668;2022-07-29T11:03:46;27.70;99.90
15286;DHT22;7744;52.172;10.668;2022-07-29T11:06:13;27.30;99.90
15286;DHT22;7744;52.172;10.668;2022-07-29T11:08:39;27.40;99.90
15286;DHT22;7744;52.172;10.668;2022-07-29T11:13:52;27.40;99.90
15286;DHT22;7744;52.172;10.668;2022-07-29T11:16:21;27.60;99.90
15286;DHT22;7744;52.172;10.668;2022-07-29T11:21:42;27.30;99.90
15286;DHT22;7744;52.172;10.668;2022-07-29T11:24:19;27.20;99.90
15286;DHT22;7744;52.172;10.668;2022-07-29T11:27:06;26.90;99.90
15286;DHT22;7744;52.172;10.668;2022-07-29T11:29:32;26.80;99.90
15286;DHT22;7744;52.172;10.668;2022-07-29T11:32:11;26.60;99.90
15286;DHT22;7744;52.172;10.668;2022-07-29T11:34:38;26.90;99.90
15286;DHT22;7744;52.172;10.668;2022-07-29T11:39:38;25.90;99.20
15286;DHT22;7744;52.172;10.668;2022-07-29T11:47:33;25.70;99.70
15286;DHT22;7744;52.172;10.668;2022-07-29T11:50:00;25.50;99.90
15286;DHT22;7744;52.172;10.668;2022-07-29T11:52:43;25.80;99.90
15286;DHT22;7744;52.172;10.668;2022-07-29T11:55:16;25.80;99.90
15286;DHT22;7744;52.172;10.668;2022-07-29T11:57:46;25.80;99.90
15286;DHT22;7744;52.172;10.668;2022-07-29T12:00:24;25.70;98.70
15286;DHT22;7744;52.172;10.668;2022-07-29T12:02:51;25.90;99.10
15286;DHT22;7744;52.172;10.668;2022-07-29T12:05:17;26.10;99.90
15286;DHT22;7744;52.172;10.668;2022-07-29T12:07:43;26.10;99.90
15286;DHT22;7744;52.172;10.668;2022-07-29T12:10:08;26.40;99.10
15286;DHT22;7744;52.172;10.668;2022-07-29T12:12:35;26.50;96.00
15286;DHT22;7744;52.172;10.668;2022-07-29T12:15:17;26.30;94.90
15286;DHT22;7744;52.172;10.668;2022-07-29T12:17:46;26.00;93.70
15286;DHT22;7744;52.172;10.668;2022-07-29T12:20:11;26.00;95.20
15286;DHT22;7744;52.172;10.668;2022-07-29T12:22:40;25.70;92.60
15286;DHT22;7744;52.172;10.668;2022-07-29T12:25:13;25.70;92.40
15286;DHT22;7744;52.172;10.668;2022-07-29T12:27:44;25.80;92.30
15286;DHT22;7744;52.172;10.668;2022-07-29T12:30:12;26.00;91.70
15286;DHT22;7744;52.172;10.668;2022-07-29T12:32:49;25.80;91.30
15286;DHT22;7744;52.172;10.668;2022-07-29T12:35:16;26.00;90.40
15286;DHT22;7744;52.172;10.668;2022-07-29T12:37:45;25.90;90.60
15286;DHT22;7744;52.172;10.668;2022-07-29T12:40:15;25.90;88.70
15286;DHT22;7744;52.172;10.668;2022-07-29T12:45:30;25.80;94.90
15286;DHT22;7744;52.172;10.668;2022-07-29T12:47:56;26.00;97.20
15286;DHT22;7744;52.172;10.668;2022-07-29T12:50:22;26.10;81.10
15286;DHT22;7744;52.172;10.668;2022-07-29T12:52:48;26.00;79.60
15286;DHT22;7744;52.172;10.668;2022-07-29T12:55:13;26.00;81.60
15286;DHT22;7744;52.172;10.668;2022-07-29T12:57:50;25.80;81.70
15286;DHT22;7744;52.172;10.668;2022-07-29T13:00:22;26.00;82.60
15286;DHT22;7744;52.172;10.668;2022-07-29T13:02:55;26.00;78.20
15286;DHT22;7744;52.172;10.668;2022-07-29T13:05:21;26.10;77.60
15286;DHT22;7744;52.172;10.668;2022-07-29T13:07:47;26.10;77.40
15286;DHT22;7744;52.172;10.668;2022-07-29T13:10:13;26.00;75.90
15286;DHT22;7744;52.172;10.668;2022-07-29T13:13:03;26.20;77.60
15286;DHT22;7744;52.172;10.668;2022-07-29T13:15:29;26.00;78.30
15286;DHT22;7744;52.172;10.668;2022-07-29T13:17:55;26.00;77.50
15286;DHT22;7744;52.172;10.668;2022-07-29T13:20:24;26.10;80.00
15286;DHT22;7744;52.172;10.668;2022-07-29T13:22:50;26.40;80.20
15286;DHT22;7744;52.172;10.668;2022-07-29T13:25:24;26.50;77.10
15286;DHT22;7744;52.172;10.668;2022-07-29T13:27:50;26.40;75.00
15286;DHT22;7744;52.172;10.668;2022-07-29T13:30:15;26.30;75.00
15286;DHT22;7744;52.172;10.668;2022-07-29T13:32:41;26.30;72.10
15286;DHT22;7744;52.172;10.668;2022-07-29T13:35:08;26.30;72.80
15286;DHT22;7744;52.172;10.668;2022-07-29T13:37:35;26.50;73.20
15286;DHT22;7744;52.172;10.668;2022-07-29T13:40:04;26.30;69.70
15286;DHT22;7744;52.172;10.668;2022-07-29T13:42:31;26.60;71.60
15286;DHT22;7744;52.172;10.668;2022-07-29T13:44:57;26.80;70.80
15286;DHT22;7744;52.172;10.668;2022-07-29T13:47:23;26.60;68.00
15286;DHT22;7744;52.172;10.668;2022-07-29T13:49:49;26.50;67.50
15286;DHT22;7744;52.172;10.668;2022-07-29T13:52:14;26.50;65.90
15286;DHT22;7744;52.172;10.668;2022-07-29T13:54:41;26.50;66.80
15286;DHT22;7744;52.172;10.668;2022-07-29T13:57:06;26.70;67.20
15286;DHT22;7744;52.172;10.668;2022-07-29T13:59:33;26.70;70.80
15286;DHT22;7744;52.172;10.668;2022-07-29T14:01:59;26.90;66.90
15286;DHT22;7744;52.172;10.668;2022-07-29T14:04:25;26.70;67.20
15286;DHT22;7744;52.172;10.668;2022-07-29T14:06:50;26.70;66.00
15286;DHT22;7744;52.172;10.668;2022-07-29T14:09:16;26.60;65.00
15286;DHT22;7744;52.172;10.668;2022-07-29T14:11:42;26.40;62.80
15286;DHT22;7744;52.172;10.668;2022-07-29T14:14:07;26.70;64.70
15286;DHT22;7744;52.172;10.668;2022-07-29T14:16:33;26.90;65.00
15286;DHT22;7744;52.172;10.668;2022-07-29T14:18:59;26.80;62.60
15286;DHT22;7744;52.172;10.668;2022-07-29T14:21:25;26.90;62.30
15286;DHT22;7744;52.172;10.668;2022-07-29T14:23:50;27.10;63.50
15286;DHT22;7744;52.172;10.668;2022-07-29T14:26:17;27.10;62.70
15286;DHT22;7744;52.172;10.668;2022-07-29T14:28:42;27.50;63.70
15286;DHT22;7744;52.172;10.668;2022-07-29T14:31:09;27.50;61.80
15286;DHT22;7744;52.172;10.668;2022-07-29T14:33:34;27.20;57.50
15286;DHT22;7744;52.172;10.668;2022-07-29T14:36:00;26.80;57.60
15286;DHT22;7744;52.172;10.668;2022-07-29T14:38:25;26.50;58.60
15286;DHT22;7744;52.172;10.668;2022-07-29T14:40:51;26.40;58.00
15286;DHT22;7744;52.172;10.668;2022-07-29T14:43:17;26.40;60.80
15286;DHT22;7744;52.172;10.668;2022-07-29T14:45:42;26.40;61.30
15286;DHT22;7744;52.172;10.668;2022-07-29T14:48:08;26.50;60.80
15286;DHT22;7744;52.172;10.668;2022-07-29T14:50:34;26.60;61.90
15286;DHT22;7744;52.172;10.668;2022-07-29T14:53:00;26.40;62.40
15286;DHT22;7744;52.172;10.668;2022-07-29T14:55:26;26.20;62.30
15286;DHT22;7744;52.172;10.668;2022-07-29T14:57:52;26.30;66.00
15286;DHT22;7744;52.172;10.668;2022-07-29T15:00:17;26.50;67.20
15286;DHT22;7744;52.172;10.668;2022-07-29T15:02:43;26.30;66.80
15286;DHT22;7744;52.172;10.668;2022-07-29T15:05:09;26.40;69.80
15286;DHT22;7744;52.172;10.668;2022-07-29T15:07:34;26.30;66.30
15286;DHT22;7744;52.172;10.668;2022-07-29T15:10:00;26.40;67.40
15286;DHT22;7744;52.172;10.668;2022-07-29T15:12:25;26.50;66.60
15286;DHT22;7744;52.172;10.668;2022-07-29T15:14:51;26.30;66.50
15286;DHT22;7744;52.172;10.668;2022-07-29T15:17:17;26.40;67.70
15286;DHT22;7744;52.172;10.668;2022-07-29T15:19:42;26.40;68.80
15286;DHT22;7744;52.172;10.668;2022-07-29T15:22:08;26.50;72.00
15286;DHT22;7744;52.172;10.668;2022-07-29T15:24:33;26.40;70.40
15286;DHT22;7744;52.172;10.668;2022-07-29T15:26:59;26.30;69.10
15286;DHT22;7744;52.172;10.668;2022-07-29T15:29:25;26.40;67.90
15286;DHT22;7744;52.172;10.668;2022-07-29T15:31:50;26.40;70.50
15286;DHT22;7744;52.172;10.668;2022-07-29T15:34:16;26.30;70.10
15286;DHT22;7744;52.172;10.668;2022-07-29T15:36:42;26.20;69.30
15286;DHT22;7744;52.172;10.668;2022-07-29T15:39:07;26.20;72.90
15286;DHT22;7744;52.172;10.668;2022-07-29T15:41:34;25.90;72.20
15286;DHT22;7744;52.172;10.668;2022-07-29T15:43:59;26.40;71.80
15286;DHT22;7744;52.172;10.668;2022-07-29T15:46:25;26.30;70.10
15286;DHT22;7744;52.172;10.668;2022-07-29T15:49:09;26.40;73.50
15286;DHT22;7744;52.172;10.668;2022-07-29T15:51:35;26.30;71.70
15286;DHT22;7744;52.172;10.668;2022-07-29T15:54:02;26.30;72.00
15286;DHT22;7744;52.172;10.668;2022-07-29T15:56:28;26.30;71.80
15286;DHT22;7744;52.172;10.668;2022-07-29T15:58:54;26.20;70.70
15286;DHT22;7744;52.172;10.668;2022-07-29T16:01:19;26.30;71.60
15286;DHT22;7744;52.172;10.668;2022-07-29T16:03:45;26.30;71.70
15286;DHT22;7744;52.172;10.668;2022-07-29T16:06:11;26.40;73.50
15286;DHT22;7744;52.172;10.668;2022-07-29T16:08:36;26.40;71.30
15286;DHT22;7744;52.172;10.668;2022-07-29T16:11:02;26.30;70.20
15286;DHT22;7744;52.172;10.668;2022-07-29T16:13:27;26.30;69.70
15286;DHT22;7744;52.172;10.668;2022-07-29T16:15:53;26.40;74.10
15286;DHT22;7744;52.172;10.668;2022-07-29T16:18:18;26.50;74.80
15286;DHT22;7744;52.172;10.668;2022-07-29T16:20:44;26.40;73.40
15286;DHT22;7744;52.172;10.668;2022-07-29T16:23:09;26.30;72.70